Time;durP1;ratioP1;P1;durP2;ratioP2;P2;SDS_P1;SDS_P2;PMS_P1;PMS_P2;Temp;Humidity;BMP_temperature;BMP_pressure;BME280_temperature;BME280_humidity;BME280_pressure;Samples;Min_cycle;Max_cycle;Signal;HPM_P1;HPM_P2
2021/11/18 00:00:27;;;;;;;15.57;4.18;;;;;;;8.83;77.06;102723.91;5014175;28;20106;-71
2021/11/18 00:02:53;;;;;;;15.90;4.20;;;;;;;8.79;77.14;102736.66;4999219;28;20639;-72
2021/11/18 00:05:23;;;;;;;15.07;4.03;;;;;;;8.77;77.05;102739.22;5024264;28;20037;-70
2021/11/18 00:07:50;;;;;;;17.75;4.25;;;;;;;8.73;76.89;102732.03;5008918;28;20036;-70
2021/11/18 00:10:20;;;;;;;13.95;3.97;;;;;;;8.73;76.99;102737.25;5002348;28;20044;-72
2021/11/18 00:12:46;;;;;;;14.93;4.07;;;;;;;8.74;77.21;102736.44;5000121;28;20040;-72
2021/11/18 00:15:13;;;;;;;11.55;4.00;;;;;;;8.72;77.13;102732.00;5023135;28;20045;-72
2021/11/18 00:17:38;;;;;;;17.23;4.10;;;;;;;8.65;77.40;102737.69;5017239;28;20036;-71
2021/11/18 00:20:05;;;;;;;13.95;4.10;;;;;;;8.58;77.15;102735.59;5016658;28;20699;-71
2021/11/18 00:22:31;;;;;;;13.05;4.00;;;;;;;8.57;77.01;102733.81;5027878;28;20571;-73
2021/11/18 00:24:56;;;;;;;19.63;3.92;;;;;;;8.51;77.14;102732.69;5007710;28;20052;-71
2021/11/18 00:27:22;;;;;;;17.95;4.47;;;;;;;8.52;77.11;102746.56;5024423;28;20064;-73
2021/11/18 00:29:48;;;;;;;16.52;3.85;;;;;;;8.52;76.97;102750.06;5031371;28;20622;-71
2021/11/18 00:32:13;;;;;;;14.35;3.72;;;;;;;8.50;77.07;102748.19;5031304;28;20051;-72
2021/11/18 00:34:38;;;;;;;14.98;3.92;;;;;;;8.41;77.16;102740.84;5026126;28;20059;-72
2021/11/18 00:37:04;;;;;;;11.35;3.33;;;;;;;8.38;76.92;102747.56;5016753;28;20041;-71
2021/11/18 00:39:29;;;;;;;14.80;3.40;;;;;;;8.34;76.95;102746.53;5028607;28;20393;-71
2021/11/18 00:41:55;;;;;;;17.80;3.75;;;;;;;8.29;77.14;102745.34;5025709;28;20132;-71
2021/11/18 00:44:20;;;;;;;11.52;3.55;;;;;;;8.24;76.66;102746.78;5025756;28;20223;-71
2021/11/18 00:46:45;;;;;;;15.20;3.85;;;;;;;8.22;76.99;102751.03;5031341;28;20131;-70
2021/11/18 00:49:11;;;;;;;9.60;3.45;;;;;;;8.16;77.02;102742.91;5012214;28;20417;-71
2021/11/18 00:51:36;;;;;;;12.35;3.80;;;;;;;8.13;77.13;102745.34;5025582;28;20159;-71
2021/11/18 00:54:04;;;;;;;13.25;3.67;;;;;;;8.08;77.22;102741.63;5023305;28;20630;-72
2021/11/18 00:56:30;;;;;;;14.25;3.78;;;;;;;8.12;77.53;102739.25;5024011;28;20607;-71
2021/11/18 00:58:56;;;;;;;19.98;3.95;;;;;;;8.15;77.89;102731.63;5020737;28;20087;-70
2021/11/18 01:01:25;;;;;;;16.20;3.95;;;;;;;8.19;77.78;102735.28;5010063;28;20477;-71
2021/11/18 01:03:50;;;;;;;22.33;4.07;;;;;;;8.22;77.54;102740.66;5017957;28;20297;-70
2021/11/18 01:06:16;;;;;;;17.27;3.92;;;;;;;8.18;77.55;102755.97;5004492;28;20032;-72
2021/11/18 01:08:41;;;;;;;22.52;4.32;;;;;;;8.14;77.77;102760.13;5030746;28;20044;-73
2021/11/18 01:11:13;;;;;;;19.80;3.80;;;;;;;8.14;77.77;102754.94;5013939;28;20063;-71
2021/11/18 01:13:40;;;;;;;15.75;3.70;;;;;;;8.17;78.11;102762.00;5004203;28;20801;-71
2021/11/18 01:16:06;;;;;;;15.13;3.63;;;;;;;8.16;78.03;102758.50;5032518;28;20587;-73
2021/11/18 01:18:32;;;;;;;11.65;3.33;;;;;;;8.18;77.85;102754.25;5028330;28;20083;-71
2021/11/18 01:20:59;;;;;;;16.77;3.70;;;;;;;8.18;77.99;102748.19;4993977;28;20036;-72
2021/11/18 01:23:28;;;;;;;17.70;3.13;;;;;;;8.18;77.74;102751.66;5002245;28;20440;-71
2021/11/18 01:25:54;;;;;;;18.17;3.97;;;;;;;8.22;77.84;102748.44;5009357;28;20048;-71
2021/11/18 01:28:19;;;;;;;18.02;4.10;;;;;;;8.20;78.02;102743.97;5029300;28;20032;-71
2021/11/18 01:30:45;;;;;;;16.63;3.65;;;;;;;8.13;77.85;102746.25;5021276;28;20051;-71
2021/11/18 01:33:14;;;;;;;12.65;3.42;;;;;;;8.09;77.69;102743.41;5005373;28;20413;-73
2021/11/18 01:35:40;;;;;;;16.27;3.28;;;;;;;8.13;77.42;102758.31;5027338;28;20153;-72
2021/11/18 01:38:06;;;;;;;17.75;3.80;;;;;;;8.17;77.75;102757.69;5006564;28;20053;-70
2021/11/18 01:40:35;;;;;;;19.52;4.03;;;;;;;8.13;77.61;102756.63;5004188;28;20103;-72
2021/11/18 01:43:01;;;;;;;12.80;3.28;;;;;;;8.13;77.82;102753.13;4995864;28;20286;-72
2021/11/18 01:45:29;;;;;;;14.98;3.40;;;;;;;8.13;77.92;102750.53;5002459;28;20041;-71
2021/11/18 01:47:54;;;;;;;18.75;3.63;;;;;;;8.21;78.10;102762.25;4989089;28;20073;-71
2021/11/18 01:50:23;;;;;;;12.60;3.05;;;;;;;8.29;78.01;102771.34;4997803;28;20079;-71
2021/11/18 01:52:49;;;;;;;16.50;3.22;;;;;;;8.40;78.38;102772.81;4954224;28;20044;-71
2021/11/18 01:55:17;;;;;;;20.15;3.92;;;;;;;8.45;78.54;102779.16;5010748;28;20053;-71
2021/11/18 01:57:46;;;;;;;16.95;3.08;;;;;;;8.49;78.31;102778.50;4989074;28;20067;-73
2021/11/18 02:00:26;;;;;;;15.15;3.70;;;;;;;8.51;78.59;102778.56;5007573;28;20064;-72
2021/11/18 02:02:52;;;;;;;12.32;2.85;;;;;;;8.54;78.33;102777.00;4997705;28;20124;-71
2021/11/18 02:05:22;;;;;;;12.07;2.92;;;;;;;8.58;78.26;102783.28;5007084;28;20187;-72
2021/11/18 02:07:48;;;;;;;17.75;3.65;;;;;;;8.61;78.34;102791.22;5012493;28;20070;-72
2021/11/18 02:10:17;;;;;;;17.63;3.85;;;;;;;8.62;78.31;102793.00;4983150;28;20045;-71
2021/11/18 02:12:45;;;;;;;20.10;3.70;;;;;;;8.64;78.65;102787.91;5002035;28;20045;-71
2021/11/18 02:15:29;;;;;;;15.90;3.67;;;;;;;8.66;78.47;102789.75;4998365;28;20083;-71
2021/11/18 02:17:55;;;;;;;20.05;3.78;;;;;;;8.72;78.62;102787.47;5011134;28;20053;-71
2021/11/18 02:20:27;;;;;;;22.13;4.00;;;;;;;8.83;78.88;102780.22;4999366;28;20805;-72
2021/11/18 02:22:54;;;;;;;14.55;3.70;;;;;;;8.92;78.59;102776.38;4995491;28;20395;-71
2021/11/18 02:25:25;;;;;;;23.27;3.95;;;;;;;8.98;78.66;102782.69;5007832;28;20033;-71
2021/11/18 02:27:51;;;;;;;21.95;3.92;;;;;;;9.00;78.99;102779.38;5005036;28;20048;-71
2021/11/18 02:30:17;;;;;;;23.17;4.40;;;;;;;9.04;78.43;102780.41;5011233;28;20050;-71
2021/11/18 02:32:44;;;;;;;19.48;4.07;;;;;;;9.04;78.77;102789.09;5002238;28;20060;-72
2021/11/18 02:35:15;;;;;;;17.02;3.85;;;;;;;9.09;78.76;102789.34;5005469;28;20037;-72
2021/11/18 02:37:41;;;;;;;25.23;3.83;;;;;;;9.10;78.74;102788.50;5005829;28;20112;-73
2021/11/18 02:40:09;;;;;;;18.73;3.42;;;;;;;9.17;78.44;102788.91;4991287;28;20083;-72
2021/11/18 02:42:35;;;;;;;24.83;3.80;;;;;;;9.22;78.46;102778.69;4983735;28;20136;-71
2021/11/18 02:45:00;;;;;;;23.48;3.83;;;;;;;9.33;78.56;102787.97;4978502;28;20092;-71
2021/11/18 02:47:26;;;;;;;23.48;4.32;;;;;;;9.38;78.94;102783.88;5008245;28;20045;-71
2021/11/18 02:49:53;;;;;;;20.77;3.42;;;;;;;9.40;78.64;102786.50;5000841;28;20172;-72
2021/11/18 02:52:25;;;;;;;20.95;3.85;;;;;;;9.64;78.07;102785.97;4989121;28;20052;-72
2021/11/18 02:54:50;;;;;;;22.35;3.38;;;;;;;9.52;78.03;102777.59;4977357;28;20371;-72
2021/11/18 02:57:16;;;;;;;18.23;3.58;;;;;;;9.50;78.51;102776.66;5002422;28;20264;-71
2021/11/18 02:59:41;;;;;;;20.13;3.60;;;;;;;9.48;78.58;102773.06;5004963;28;20052;-72
2021/11/18 03:02:07;;;;;;;28.38;4.38;;;;;;;9.54;78.43;102775.06;5003929;28;20149;-71
2021/11/18 03:04:34;;;;;;;29.08;4.10;;;;;;;9.60;78.63;102770.16;5012433;28;20122;-71
2021/11/18 03:07:00;;;;;;;19.63;3.50;;;;;;;9.64;78.40;102770.34;4970663;28;20040;-72
2021/11/18 03:09:27;;;;;;;20.10;3.45;;;;;;;9.66;78.58;102783.47;5008289;28;20107;-72
2021/11/18 03:11:53;;;;;;;15.50;3.15;;;;;;;9.66;77.98;102779.16;5007137;28;20049;-73
2021/11/18 03:14:19;;;;;;;16.17;3.40;;;;;;;9.65;78.12;102779.06;5001068;28;20047;-72
2021/11/18 03:16:45;;;;;;;17.40;3.60;;;;;;;9.65;78.31;102779.06;5006012;28;20056;-72
2021/11/18 03:19:11;;;;;;;23.33;3.47;;;;;;;9.63;78.25;102775.50;4994808;28;20040;-72
2021/11/18 03:21:37;;;;;;;22.40;3.85;;;;;;;9.59;77.90;102769.25;4996601;28;20077;-72
2021/11/18 03:24:03;;;;;;;22.33;3.67;;;;;;;9.64;78.06;102772.06;4990714;28;20056;-72
2021/11/18 03:26:30;;;;;;;24.58;3.80;;;;;;;9.64;78.26;102770.34;5009090;28;20044;-72
2021/11/18 03:28:56;;;;;;;23.20;3.47;;;;;;;9.61;77.94;102770.22;4995577;28;20041;-72
2021/11/18 03:31:22;;;;;;;21.80;3.42;;;;;;;9.69;77.71;102776.69;4989094;28;20144;-72
2021/11/18 03:33:56;;;;;;;23.52;3.92;;;;;;;9.66;77.92;102771.34;5010884;28;20093;-72
2021/11/18 03:36:23;;;;;;;22.67;3.45;;;;;;;9.64;78.17;102782.47;4967378;28;20051;-72
2021/11/18 03:38:50;;;;;;;21.27;3.78;;;;;;;9.62;77.84;102778.94;4987836;28;20041;-72
2021/11/18 03:41:16;;;;;;;26.13;4.03;;;;;;;9.66;78.23;102778.25;4976726;28;20125;-71
2021/11/18 03:43:46;;;;;;;23.45;3.97;;;;;;;9.61;78.21;102775.44;5009225;28;20390;-72
2021/11/18 03:46:13;;;;;;;19.90;3.55;;;;;;;9.56;78.09;102765.63;5005065;28;20029;-72
2021/11/18 03:48:38;;;;;;;15.25;3.30;;;;;;;9.45;77.65;102767.72;4990901;28;20467;-72
2021/11/18 03:51:06;;;;;;;24.23;3.90;;;;;;;9.37;77.84;102774.25;5001417;28;20115;-71
2021/11/18 03:53:34;;;;;;;16.50;3.30;;;;;;;9.30;77.14;102773.06;4999904;28;20045;-71
2021/11/18 03:56:02;;;;;;;16.40;3.08;;;;;;;9.20;77.71;102769.94;5009771;28;20052;-71
2021/11/18 03:58:27;;;;;;;19.25;3.70;;;;;;;9.11;77.36;102772.97;4986616;28;20037;-72
2021/11/18 04:00:52;;;;;;;15.07;3.05;;;;;;;9.08;77.67;102767.63;4994046;28;20670;-72
2021/11/18 04:03:18;;;;;;;19.35;4.03;;;;;;;9.02;77.36;102772.53;5002618;28;20052;-72
2021/11/18 04:05:43;;;;;;;23.58;3.47;;;;;;;8.92;77.14;102770.28;5004171;28;20045;-71
2021/11/18 04:08:09;;;;;;;15.77;3.40;;;;;;;8.88;77.66;102778.75;4990168;28;21386;-71
2021/11/18 04:10:37;;;;;;;16.25;3.17;;;;;;;8.80;77.48;102780.06;4990093;28;20974;-71
2021/11/18 04:13:03;;;;;;;16.08;2.97;;;;;;;8.85;77.48;102783.78;5004869;28;20047;-71
2021/11/18 04:15:30;;;;;;;15.38;2.90;;;;;;;8.84;77.44;102777.69;5006143;28;20512;-72
2021/11/18 04:17:57;;;;;;;18.98;3.15;;;;;;;8.87;77.30;102780.47;5004568;28;20500;-72
2021/11/18 04:20:23;;;;;;;17.20;2.88;;;;;;;8.87;77.31;102782.16;5018134;28;20556;-71
2021/11/18 04:22:50;;;;;;;19.50;3.20;;;;;;;8.95;77.36;102775.66;4978929;28;20053;-71
2021/11/18 04:25:19;;;;;;;18.75;3.03;;;;;;;8.97;77.44;102776.59;5013729;28;20106;-71
2021/11/18 04:27:45;;;;;;;13.65;2.83;;;;;;;9.01;77.58;102775.97;4989544;28;20036;-69
2021/11/18 04:30:14;;;;;;;13.18;2.63;;;;;;;8.99;77.29;102771.47;5015548;28;20056;-71
2021/11/18 04:32:40;;;;;;;15.55;2.75;;;;;;;8.95;77.33;102773.03;5009043;28;20037;-72
2021/11/18 04:35:06;;;;;;;14.30;2.67;;;;;;;8.90;77.53;102758.94;4987497;28;20051;-72
2021/11/18 04:37:31;;;;;;;14.20;2.78;;;;;;;8.84;77.22;102759.47;4992384;28;20055;-72
2021/11/18 04:39:57;;;;;;;11.95;2.63;;;;;;;8.78;77.40;102743.56;4987618;28;20041;-72
2021/11/18 04:42:24;;;;;;;13.50;2.67;;;;;;;8.76;77.50;102747.81;4971545;28;20045;-72
2021/11/18 04:44:49;;;;;;;14.88;2.80;;;;;;;8.78;77.10;102746.16;4980025;28;20110;-72
2021/11/18 04:47:15;;;;;;;15.20;2.90;;;;;;;8.78;77.10;102746.16;4991369;28;20581;-72
2021/11/18 04:49:44;;;;;;;16.77;3.13;;;;;;;8.76;77.61;102755.63;4973767;28;20133;-72
2021/11/18 04:52:10;;;;;;;20.00;3.10;;;;;;;8.71;77.36;102740.59;4986461;28;20133;-72
2021/11/18 04:54:36;;;;;;;16.48;2.58;;;;;;;8.69;77.31;102740.53;4992078;28;20364;-72
2021/11/18 04:57:02;;;;;;;15.57;2.78;;;;;;;8.68;76.85;102738.72;4982690;28;20038;-71
2021/11/18 04:59:28;;;;;;;19.85;2.92;;;;;;;8.73;77.19;102729.44;4977994;28;20104;-71
2021/11/18 05:01:53;;;;;;;18.90;3.10;;;;;;;8.71;77.12;102741.50;4967647;28;20049;-71
2021/11/18 05:04:19;;;;;;;16.58;2.97;;;;;;;8.67;77.19;102755.13;4987422;28;20068;-72
2021/11/18 05:06:46;;;;;;;20.77;3.75;;;;;;;8.69;76.84;102755.22;4985480;28;20045;-71
2021/11/18 05:09:12;;;;;;;25.50;3.90;;;;;;;8.64;77.50;102752.41;4972089;28;20370;-72
2021/11/18 05:11:39;;;;;;;19.25;3.65;;;;;;;8.61;77.32;102754.81;4969308;28;20505;-71
2021/11/18 05:14:05;;;;;;;20.95;3.88;;;;;;;8.58;77.68;102761.59;4969332;28;20045;-72
2021/11/18 05:16:31;;;;;;;15.00;3.28;;;;;;;8.53;77.47;102767.47;4994679;28;20047;-72
2021/11/18 05:18:56;;;;;;;16.00;3.67;;;;;;;8.50;77.54;102766.38;4978814;28;20041;-71
2021/11/18 05:21:25;;;;;;;19.33;3.85;;;;;;;8.46;77.26;102760.16;4967017;28;20038;-72
2021/11/18 05:23:51;;;;;;;16.55;3.97;;;;;;;8.46;77.15;102767.94;4953065;28;20041;-72
2021/11/18 05:26:19;;;;;;;18.25;4.18;;;;;;;8.47;77.58;102769.75;4964924;28;20061;-71
2021/11/18 05:28:45;;;;;;;18.70;4.38;;;;;;;8.48;77.55;102760.19;4985591;28;20037;-71
2021/11/18 05:31:11;;;;;;;19.70;3.88;;;;;;;8.51;78.10;102753.47;4979321;28;20053;-72
2021/11/18 05:33:37;;;;;;;17.63;4.10;;;;;;;8.57;78.26;102749.41;4994802;28;20039;-73
2021/11/18 05:36:03;;;;;;;25.65;4.50;;;;;;;8.64;78.58;102748.91;4975732;28;20068;-71
2021/11/18 05:38:29;;;;;;;23.55;4.30;;;;;;;8.71;78.42;102753.59;4984973;28;20037;-71
2021/11/18 05:40:55;;;;;;;18.80;4.20;;;;;;;8.79;78.16;102760.06;4977732;28;20037;-70
2021/11/18 05:43:21;;;;;;;19.25;4.38;;;;;;;8.79;78.72;102766.16;4986199;28;20601;-71
2021/11/18 05:45:46;;;;;;;19.42;4.35;;;;;;;8.81;78.79;102764.53;4998375;28;20541;-72
2021/11/18 05:48:15;;;;;;;21.40;4.07;;;;;;;8.85;78.95;102755.16;4979787;28;20137;-71
2021/11/18 05:50:46;;;;;;;22.27;3.97;;;;;;;8.92;78.92;102758.16;4989441;28;20799;-71
2021/11/18 05:53:13;;;;;;;18.20;4.40;;;;;;;8.96;78.84;102767.91;4995946;28;20537;-71
2021/11/18 05:55:39;;;;;;;21.88;4.40;;;;;;;9.02;78.70;102758.63;5003857;28;20048;-71
2021/11/18 05:58:05;;;;;;;33.78;4.90;;;;;;;9.04;79.04;102764.78;5007967;28;20041;-71
2021/11/18 06:00:31;;;;;;;21.75;4.65;;;;;;;9.09;79.00;102769.41;4989638;28;20043;-73
2021/11/18 06:02:57;;;;;;;25.70;4.20;;;;;;;9.08;78.81;102765.03;4984140;28;20099;-72
2021/11/18 06:05:24;;;;;;;19.20;4.65;;;;;;;9.06;78.68;102769.25;4998018;28;20082;-71
2021/11/18 06:07:50;;;;;;;26.45;4.93;;;;;;;9.00;78.78;102771.56;5000651;28;20073;-72
2021/11/18 06:10:16;;;;;;;19.92;4.75;;;;;;;9.04;78.26;102770.00;5007859;28;20037;-72
2021/11/18 06:12:42;;;;;;;22.98;4.60;;;;;;;8.95;78.60;102766.13;5006108;28;20049;-72
2021/11/18 06:15:09;;;;;;;23.90;4.90;;;;;;;8.86;78.77;102765.66;4986068;28;20972;-71
2021/11/18 06:17:35;;;;;;;16.70;4.30;;;;;;;8.84;78.48;102774.22;4985362;28;20036;-72
2021/11/18 06:20:03;;;;;;;21.58;4.70;;;;;;;8.80;78.54;102769.66;4992623;28;20109;-72
2021/11/18 06:22:29;;;;;;;19.60;4.63;;;;;;;8.78;78.29;102769.56;5002939;28;21056;-72
2021/11/18 06:24:55;;;;;;;21.65;4.70;;;;;;;8.73;78.34;102764.97;4976561;28;20577;-71
2021/11/18 06:27:21;;;;;;;25.77;4.95;;;;;;;8.71;78.44;102766.59;5007854;28;20408;-71
2021/11/18 06:29:47;;;;;;;25.70;4.68;;;;;;;8.64;78.47;102770.59;4986778;28;20045;-72
2021/11/18 06:32:13;;;;;;;20.70;4.82;;;;;;;8.58;78.86;102777.19;4979480;28;20071;-72
2021/11/18 06:34:41;;;;;;;21.63;4.95;;;;;;;8.59;78.51;102776.38;4987607;28;20049;-71
2021/11/18 06:37:06;;;;;;;20.05;4.53;;;;;;;8.56;78.51;102771.91;4977954;28;20561;-72
2021/11/18 06:39:35;;;;;;;21.65;4.85;;;;;;;8.53;78.29;102774.38;5005192;28;20068;-72
2021/11/18 06:42:00;;;;;;;16.80;4.35;;;;;;;8.51;78.66;102774.28;4981388;28;20053;-72
2021/11/18 06:44:26;;;;;;;27.98;4.93;;;;;;;8.58;78.36;102778.09;4987399;28;20096;-71
2021/11/18 06:46:51;;;;;;;20.48;4.88;;;;;;;8.64;78.51;102772.31;4974725;28;20132;-71
2021/11/18 06:49:16;;;;;;;23.67;4.97;;;;;;;8.68;78.74;102777.72;4986717;28;20805;-72
2021/11/18 06:51:43;;;;;;;26.63;4.85;;;;;;;8.77;78.93;102774.72;4990083;28;20786;-71
2021/11/18 06:54:10;;;;;;;31.83;4.88;;;;;;;8.97;78.86;102779.19;4989517;28;20049;-71
2021/11/18 06:56:36;;;;;;;28.33;5.10;;;;;;;9.18;78.24;102782.88;4987970;28;20570;-72
2021/11/18 06:59:03;;;;;;;24.23;4.72;;;;;;;9.29;78.20;102784.28;4973596;28;20060;-72
2021/11/18 07:01:28;;;;;;;31.95;5.07;;;;;;;9.35;77.90;102794.09;4988181;28;20049;-72
2021/11/18 07:03:55;;;;;;;23.13;5.30;;;;;;;9.43;77.82;102807.50;4984931;28;20053;-71
2021/11/18 07:06:21;;;;;;;22.08;4.82;;;;;;;9.48;78.12;102817.31;4989962;28;20596;-72
2021/11/18 07:08:47;;;;;;;31.25;5.50;;;;;;;9.53;78.18;102821.03;4990553;28;20039;-72
2021/11/18 07:11:14;;;;;;;36.05;5.90;;;;;;;9.63;77.98;102823.28;4952379;28;20053;-72
2021/11/18 07:13:40;;;;;;;27.27;5.28;;;;;;;9.70;78.03;102821.84;4977443;28;20043;-71
2021/11/18 07:16:08;;;;;;;23.48;4.95;;;;;;;9.76;77.91;102814.31;4980898;28;21110;-71
2021/11/18 07:18:34;;;;;;;32.22;5.65;;;;;;;9.80;77.95;102816.28;4965851;28;20081;-72
2021/11/18 07:20:59;;;;;;;24.35;5.18;;;;;;;9.82;77.46;102806.78;4971303;28;20037;-73
2021/11/18 07:23:25;;;;;;;21.52;4.70;;;;;;;9.82;77.47;102827.63;4983769;28;20037;-72
2021/11/18 07:25:53;;;;;;;24.88;5.00;;;;;;;9.78;77.70;102837.03;4982477;28;20119;-70
2021/11/18 07:28:20;;;;;;;26.80;5.18;;;;;;;9.80;77.65;102836.22;4983803;28;20041;-73
2021/11/18 07:30:47;;;;;;;27.25;4.88;;;;;;;9.80;77.69;102844.91;4983212;28;20053;-72
2021/11/18 07:33:13;;;;;;;22.95;5.30;;;;;;;9.83;77.61;102841.56;4977873;28;20119;-71
2021/11/18 07:35:39;;;;;;;28.00;5.47;;;;;;;9.82;77.53;102830.22;4981619;28;20167;-72
2021/11/18 07:38:04;;;;;;;31.80;5.18;;;;;;;9.86;77.82;102834.78;4963871;28;20529;-71
2021/11/18 07:40:30;;;;;;;22.25;5.03;;;;;;;9.88;77.73;102840.94;4963708;28;20061;-70
2021/11/18 07:42:56;;;;;;;24.33;5.00;;;;;;;9.91;77.20;102848.03;4979450;28;20085;-71
2021/11/18 07:45:23;;;;;;;20.63;5.20;;;;;;;9.92;77.24;102836.78;4983486;28;20045;-71
2021/11/18 07:47:49;;;;;;;31.70;5.50;;;;;;;9.94;77.71;102829.94;4969222;28;20764;-72
2021/11/18 07:50:15;;;;;;;35.00;5.68;;;;;;;9.94;77.43;102827.34;4985396;28;20052;-71
2021/11/18 07:52:41;;;;;;;28.55;5.90;;;;;;;9.97;77.79;102817.94;4982653;28;20858;-71
2021/11/18 07:55:08;;;;;;;28.00;5.63;;;;;;;10.02;77.55;102824.25;4975859;28;22019;-72
2021/11/18 07:57:34;;;;;;;21.77;5.22;;;;;;;9.98;77.53;102830.16;4993479;28;20037;-70
2021/11/18 07:59:59;;;;;;;26.42;5.95;;;;;;;10.00;77.34;102843.28;4987415;28;20046;-71
2021/11/18 08:02:24;;;;;;;24.55;5.38;;;;;;;10.06;77.22;102838.34;4979275;28;20475;-72
2021/11/18 08:04:50;;;;;;;30.20;5.65;;;;;;;10.00;77.51;102838.06;4958954;28;20498;-73
2021/11/18 08:07:15;;;;;;;23.45;5.68;;;;;;;10.02;76.99;102829.47;4982569;28;20033;-71
2021/11/18 08:09:41;;;;;;;19.48;5.22;;;;;;;9.98;76.67;102821.44;4987654;28;20751;-70
2021/11/18 08:12:07;;;;;;;26.25;5.80;;;;;;;9.96;77.13;102825.69;4985126;28;20781;-71
2021/11/18 08:14:32;;;;;;;22.05;5.53;;;;;;;9.99;77.26;102828.44;4980560;28;20053;-71
2021/11/18 08:16:58;;;;;;;24.13;5.97;;;;;;;9.96;77.26;102834.41;4982540;28;20047;-71
2021/11/18 08:19:24;;;;;;;23.48;6.10;;;;;;;9.98;76.92;102830.16;4965682;28;20051;-70
2021/11/18 08:21:51;;;;;;;25.00;5.95;;;;;;;10.00;76.67;102844.13;4991250;28;20125;-70
2021/11/18 08:24:17;;;;;;;25.08;5.75;;;;;;;10.04;76.85;102842.56;4965707;28;20152;-70
2021/11/18 08:26:44;;;;;;;23.65;6.00;;;;;;;10.08;76.75;102841.88;4982478;28;20037;-70
2021/11/18 08:29:13;;;;;;;28.67;6.22;;;;;;;10.16;77.17;102837.94;4967410;28;20789;-69
2021/11/18 08:31:39;;;;;;;27.75;6.25;;;;;;;10.22;77.01;102826.94;4984739;28;20099;-71
2021/11/18 08:34:05;;;;;;;28.88;5.95;;;;;;;10.32;76.98;102837.84;4994764;28;20052;-71
2021/11/18 08:36:33;;;;;;;28.98;5.90;;;;;;;10.49;77.02;102842.09;4967777;28;20053;-70
2021/11/18 08:38:59;;;;;;;24.45;6.00;;;;;;;10.68;77.19;102835.09;4980513;28;20343;-72
2021/11/18 08:41:25;;;;;;;22.60;5.75;;;;;;;10.78;76.45;102830.38;4986068;28;20037;-69
2021/11/18 08:43:53;;;;;;;25.67;5.30;;;;;;;10.91;76.21;102817.03;4966760;28;20072;-70
2021/11/18 08:46:20;;;;;;;22.65;5.13;;;;;;;11.10;75.82;102809.97;4989099;28;20106;-71
2021/11/18 08:48:46;;;;;;;21.08;5.00;;;;;;;11.18;75.45;102811.16;4952539;28;20173;-70
2021/11/18 08:51:13;;;;;;;22.98;5.18;;;;;;;11.35;75.10;102812.75;4989600;28;20045;-71
2021/11/18 08:53:41;;;;;;;20.63;5.20;;;;;;;11.38;74.40;102810.28;4967223;28;20530;-70
2021/11/18 08:56:07;;;;;;;21.02;5.05;;;;;;;11.38;73.68;102811.16;4980103;28;20045;-72
2021/11/18 08:58:34;;;;;;;24.83;6.00;;;;;;;11.37;74.19;102822.44;4972051;28;20155;-73
2021/11/18 09:01:04;;;;;;;24.10;4.93;;;;;;;11.33;73.66;102807.47;4957307;28;20269;-72
2021/11/18 09:03:33;;;;;;;21.75;5.30;;;;;;;11.24;73.80;102816.63;4962498;28;20404;-70
2021/11/18 09:06:03;;;;;;;32.38;5.90;;;;;;;11.32;73.85;102818.75;4981915;28;20045;-69
2021/11/18 09:08:28;;;;;;;24.58;5.40;;;;;;;11.29;73.54;102820.31;4958662;28;20146;-69
2021/11/18 09:10:54;;;;;;;25.95;5.78;;;;;;;11.34;74.23;102806.63;4945847;28;20655;-70
2021/11/18 09:13:20;;;;;;;23.73;6.10;;;;;;;11.50;74.06;102816.00;4972628;28;20045;-71
2021/11/18 09:15:48;;;;;;;25.77;5.57;;;;;;;11.60;73.98;102828.59;4973576;28;20092;-71
2021/11/18 09:18:15;;;;;;;24.08;5.80;;;;;;;11.70;73.97;102825.53;4989318;28;20072;-70
2021/11/18 09:20:41;;;;;;;30.20;5.53;;;;;;;11.84;73.48;102831.31;4992461;28;20267;-71
2021/11/18 09:23:08;;;;;;;22.00;5.40;;;;;;;11.91;72.92;102825.50;4959183;28;20052;-70
2021/11/18 09:25:38;;;;;;;20.60;5.50;;;;;;;11.96;72.28;102829.19;4983639;28;20057;-69
2021/11/18 09:28:05;;;;;;;21.00;5.00;;;;;;;12.08;72.13;102829.66;4975616;28;20522;-71
2021/11/18 09:30:37;;;;;;;21.63;4.90;;;;;;;12.10;72.02;102828.00;4974097;28;20076;-71
2021/11/18 09:33:03;;;;;;;20.05;4.78;;;;;;;12.16;71.89;102828.22;4976519;28;20129;-70
2021/11/18 09:35:32;;;;;;;19.38;4.75;;;;;;;12.09;71.59;102825.31;4981468;28;20580;-71
2021/11/18 09:37:59;;;;;;;23.20;4.78;;;;;;;12.16;71.42;102823.00;4963366;28;20103;-71
2021/11/18 09:40:44;;;;;;;21.15;4.75;;;;;;;12.17;71.66;102821.28;4966839;28;20294;-71
2021/11/18 09:43:24;;;;;;;20.67;4.80;;;;;;;12.22;71.08;102824.06;4985584;28;20076;-71
2021/11/18 09:46:08;;;;;;;22.98;4.70;;;;;;;12.33;70.84;102834.09;4966529;28;20068;-70
2021/11/18 09:48:58;;;;;;;22.13;4.65;;;;;;;12.46;70.65;102840.66;4989211;28;20080;-71
2021/11/18 09:51:43;;;;;;;24.70;4.50;;;;;;;12.59;70.17;102853.38;4954925;28;20080;-71
2021/11/18 09:54:35;;;;;;;26.17;4.78;;;;;;;12.65;70.15;102853.59;4972522;28;20068;-71
2021/11/18 09:57:30;;;;;;;21.90;4.32;;;;;;;12.76;70.16;102856.59;4957026;28;20068;-70
2021/11/18 10:00:19;;;;;;;20.75;4.80;;;;;;;12.74;69.47;102867.03;4987502;28;20056;-70
2021/11/18 10:03:03;;;;;;;20.67;4.60;;;;;;;12.80;69.28;102868.97;4978796;28;20033;-71
2021/11/18 10:05:35;;;;;;;19.02;4.45;;;;;;;12.90;69.08;102865.81;4989294;28;20045;-71
2021/11/18 10:08:16;;;;;;;19.73;5.15;;;;;;;12.94;69.04;102863.38;4978026;28;20863;-69
2021/11/18 10:10:50;;;;;;;22.58;5.03;;;;;;;12.96;68.99;102868.66;4974425;28;20568;-70
2021/11/18 10:13:26;;;;;;;19.63;4.90;;;;;;;13.05;68.86;102853.28;4974905;28;20365;-69
2021/11/18 10:15:59;;;;;;;23.08;5.05;;;;;;;13.06;68.33;102860.28;4980239;28;20056;-70
2021/11/18 10:18:26;;;;;;;24.23;5.07;;;;;;;13.13;68.66;102864.94;4983646;28;20994;-70
2021/11/18 10:21:14;;;;;;;20.80;5.18;;;;;;;13.15;68.19;102865.00;4969082;28;20132;-70
2021/11/18 10:23:41;;;;;;;20.20;4.90;;;;;;;13.09;68.71;102857.78;4986478;28;20504;-70
2021/11/18 10:26:19;;;;;;;32.28;5.43;;;;;;;13.13;68.33;102849.22;4982536;28;20056;-70
2021/11/18 10:29:00;;;;;;;26.63;5.78;;;;;;;13.22;68.51;102853.91;4978141;28;20045;-70
2021/11/18 10:31:40;;;;;;;21.30;5.28;;;;;;;13.30;68.65;102855.03;4960516;28;20053;-71
2021/11/18 10:34:22;;;;;;;21.20;4.85;;;;;;;13.38;68.43;102845.69;4989694;28;20061;-70
2021/11/18 10:37:00;;;;;;;21.23;5.18;;;;;;;13.52;67.70;102843.53;4971189;28;20096;-71
2021/11/18 10:39:37;;;;;;;23.48;4.78;;;;;;;13.74;67.41;102849.50;4962650;28;20037;-72
2021/11/18 10:42:09;;;;;;;28.98;5.25;;;;;;;13.90;66.54;102834.28;4980210;28;20207;-71
2021/11/18 10:44:52;;;;;;;25.67;4.55;;;;;;;14.02;66.74;102845.16;4987487;28;20041;-73
2021/11/18 10:47:50;;;;;;;19.48;4.38;;;;;;;14.14;65.60;102842.88;4985810;28;20070;-69
2021/11/18 10:50:33;;;;;;;23.05;4.40;;;;;;;14.30;65.52;102842.50;4964841;28;20522;-70
2021/11/18 10:53:23;;;;;;;25.05;4.30;;;;;;;14.41;64.96;102834.97;4974817;28;20128;-72
2021/11/18 10:56:08;;;;;;;23.98;4.55;;;;;;;14.47;64.62;102833.41;4961033;28;20103;-70
2021/11/18 10:58:40;;;;;;;34.92;6.15;;;;;;;14.51;64.57;102819.53;4979408;28;20056;-72
2021/11/18 11:01:21;;;;;;;23.92;5.10;;;;;;;14.55;64.06;102800.41;4968331;28;20950;-71
2021/11/18 11:03:46;;;;;;;23.17;4.80;;;;;;;14.49;64.19;102804.56;4980864;28;20044;-70
2021/11/18 11:06:23;;;;;;;27.02;4.70;;;;;;;14.16;65.28;102805.34;4983676;28;20041;-70
2021/11/18 11:09:15;;;;;;;23.35;4.32;;;;;;;14.27;65.11;102803.06;4938760;28;20033;-70
2021/11/18 11:12:02;;;;;;;24.02;4.53;;;;;;;14.22;65.00;102795.03;4982690;28;20576;-70
2021/11/18 11:15:09;;;;;;;22.35;4.20;;;;;;;13.95;65.68;102801.22;4965322;28;20410;-70
2021/11/18 11:18:00;;;;;;;26.95;4.60;;;;;;;13.98;65.74;102793.41;4964596;28;20045;-70
2021/11/18 11:20:33;;;;;;;20.50;4.47;;;;;;;14.11;65.47;102796.47;4985910;28;20052;-70
2021/11/18 11:23:10;;;;;;;20.85;4.50;;;;;;;14.06;65.56;102798.06;4968129;28;20064;-71
2021/11/18 11:25:38;;;;;;;20.25;4.18;;;;;;;14.21;65.32;102801.13;4983656;28;20037;-70
2021/11/18 11:28:19;;;;;;;20.65;4.65;;;;;;;14.21;65.60;102795.88;4983823;28;20045;-70